Lyons, NY

12:46 EST le 01 mars 2017 (GMT -0500)
Lakeshore Riders Wayne County | | Change Station
Active Advisory: Wind Advisory

Elev 440 ft 43.11 °N, 76.95 °W | Updated 2 minutes ago

Couvert
Couvert
68.1 °F
Feels Like 68.1 °F
N
7.0
Vent Variable Vent from SSO
Gusts 25.0 mph

High -- | Low -- °F
--% Risque de précip.
Hier
High -- | Low -- °F
Precip. -- pouce
Pression 29.35 pouce
Visibilité 10.0 Miles
Nuages Généralement nuageux 9500 ft
Point de rosée 50 °F
Humidité 52%
Rainfall 0.00 pouce
Profondeur de la couche neigeuse Not available.
6:43 AM 5:57 PM
Waxing Crescent, 12% visible
METAR KPEO 011653Z AUTO 20014G26KT 10SM BKN095 20/09 A2936 RMK AO2 PK WND 20033/1632 SLP938 T02000089
Pression 29.35 pouce
Visibilité 10.0 Miles
Nuages Généralement nuageux 9500 ft
Point de rosée 50 °F
Humidité 52%
Rainfall 0.00 pouce
Profondeur de la couche neigeuse Not available.
6:43 AM 5:57 PM
Waxing Crescent, 12% visible
METAR KPEO 011653Z AUTO 20014G26KT 10SM BKN095 20/09 A2936 RMK AO2 PK WND 20033/1632 SLP938 T02000089

Get Your Daily Forecast Email!

Thanks for signing up!

Be on the lookout for a verification email in your inbox.

You'll start receiving the daily forecast at 8 AM.

×

10-Day Weather Forecast

Almanac

Astronomie

Mar. 01, 2017 Rise Set
Temps réel
Crépuscule civil
Crépuscule nautique
Crépuscule astronomique
Lune
Durée de lumière visible
Longueur du jour
Tomorrow will be .
, % of the Moon is Illuminated

State Highs State Lows

Community

WunderPhotos

Upload Photos

1,962,540 photos uploaded!

WunderBlog® & News

Nearby

Profondeur de la couche de neige

Station Depth Elevation

Earthquake Activity

Ville Distance Mag. Time & Date
Minimum magnitude displayed is 2.5.

Coastal Water Temperatures

Lieu Les températures

Stations

Nearby Weather Stations

Station Location Temp Refroidissement éolien Point de rosée Humidité Vent Precip. Elev Mise à jour Type
                   

Watches & Warnings

Wind Advisory
Issued: 10:03 EST Mar. 1, 2017 – National Weather Service

... Wind Advisory remains in effect from 7 PM this evening to 1 PM
EST Thursday...

* locations... Cattaraugus, Allegany, Livingston, Ontario, Wayne,
and northern Cayuga counties.

* Timing... from early this evening through early Thursday
afternoon.

* Winds... west 20 to 30 mph with gusts up to 55 mph.

* Impacts... winds of this magnitude will result in a few tree
limbs coming down and isolated power outages. Travel in high
profile vehicles will be difficult at times in open areas.

Precautionary/preparedness actions...

A Wind Advisory is issued when sustained winds are forecast to be
31 to 39 mph or gusts will range between 46 and 57 mph. Winds of
these magnitudes may cause minor property damage without extra
precautions. Motorists in high profile vehicles should use
caution until the winds subside. Stay tuned to NOAA Weather Radio
and other radio and TV stations for further details or updates.